Terminal Aerodrome Forecast
Issued by NWS

Home | Current Version | Previous Version | Graphics & Text | Print | Product List | Glossary On
Versions: 1 2 3 4 5 6 7 8 9 10 11 12 13
000
FTUS43 KICT 260520
TAFSLN
TAF
KSLN 260520Z 2606/2706 15006KT P6SM SKC
     FM261400 16008KT P6SM BKN035
     FM262000 17011KT P6SM SCT050=

USA.gov is the U.S. government's official web portal to all federal, state and local government web resources and services.